Terminal Aerodrome Forecast
Issued by NWS Omaha/Valley, NE

Home | Current Version | Previous Version | Text Only | Print | Product List | Glossary On
Versions: 1 2 3 4 5 6 7 8 9 10 11 12 13 14 15 16 17 18 19 20 21 22 23 24 25 26 27 28 29 30 31 32 33
605
FTUS43 KOAX 190139 AAA
TAFLNK
TAF AMD
KLNK 190139Z 1902/1924 14007KT P6SM SCT250
     FM190500 02011KT P6SM OVC015
     FM190800 35015G23KT P6SM -DZ OVC015
      TEMPO 1910/1914 -FZDZ OVC008
     FM191400 36014KT P6SM OVC012=

USA.gov is the U.S. government's official web portal to all federal, state and local government web resources and services.